Time,TemperatureF,DewpointF,PressureIn,WindDirection,WindDirectionDegrees,WindSpeedMPH,WindSpeedGustMPH,Humidity,HourlyPrecipIn,Conditions,Clouds,dailyrainin,SoftwareType,DateUTC
2013-04-19 00:03:00,40.0,35.0,-100.00,SW,235,20.0,36.0,81,0.00,,,0.67,,2013-04-19 05:03:00,
2013-04-19 00:11:00,40.0,35.0,-100.00,SW,235,20.0,36.0,81,0.00,,,0.67,,2013-04-19 05:11:00,
2013-04-19 00:22:00,40.0,35.0,-100.00,SW,235,20.0,36.0,81,0.00,,,0.67,,2013-04-19 05:22:00,
2013-04-19 00:52:00,39.0,34.0,-100.00,SW,236,18.0,34.0,81,0.00,,,0.55,,2013-04-19 05:52:00,
2013-04-19 01:02:00,39.0,34.0,-100.00,SW,236,18.0,34.0,81,0.00,,,0.55,,2013-04-19 06:02:00,
2013-04-19 01:11:00,39.0,34.0,-100.00,SW,236,18.0,34.0,81,0.00,,,0.55,,2013-04-19 06:11:00,
2013-04-19 01:22:00,39.0,34.0,-100.00,SW,236,18.0,34.0,81,0.00,,,0.55,,2013-04-19 06:22:00,
2013-04-19 01:53:00,37.0,31.0,-100.00,SW,236,20.0,35.0,80,0.00,,,0.38,,2013-04-19 06:53:00,
2013-04-19 02:02:00,37.0,31.0,-100.00,SW,236,20.0,35.0,80,0.00,,,0.38,,2013-04-19 07:02:00,
2013-04-19 02:12:00,37.0,31.0,-100.00,SW,236,20.0,35.0,80,0.00,,,0.38,,2013-04-19 07:12:00,
2013-04-19 02:21:00,37.0,31.0,-100.00,SW,236,20.0,35.0,80,0.00,,,0.38,,2013-04-19 07:21:00,
2013-04-19 02:52:00,37.0,32.0,-100.00,WSW,241,17.0,29.0,81,0.00,,,0.23,,2013-04-19 07:52:00,
2013-04-19 03:02:00,37.0,32.0,-100.00,WSW,241,17.0,29.0,81,0.00,,,0.23,,2013-04-19 08:02:00,
2013-04-19 03:12:00,37.0,32.0,-100.00,WSW,241,17.0,29.0,81,0.00,,,0.23,,2013-04-19 08:12:00,
2013-04-19 03:21:00,37.0,32.0,-100.00,WSW,241,17.0,29.0,81,0.00,,,0.23,,2013-04-19 08:21:00,
2013-04-19 03:52:00,36.0,30.0,-100.00,WSW,239,18.0,32.0,80,0.00,,,0.20,,2013-04-19 08:52:00,
2013-04-19 04:01:00,36.0,30.0,-100.00,WSW,239,18.0,32.0,80,0.00,,,0.20,,2013-04-19 09:01:00,
2013-04-19 04:12:00,36.0,30.0,-100.00,WSW,239,18.0,32.0,80,0.00,,,0.20,,2013-04-19 09:12:00,
2013-04-19 04:21:00,36.0,30.0,-100.00,WSW,239,18.0,32.0,80,0.00,,,0.20,,2013-04-19 09:21:00,
2013-04-19 04:52:00,35.0,30.0,-100.00,WSW,243,20.0,28.0,81,0.00,,,0.18,,2013-04-19 09:52:00,
2013-04-19 05:02:00,35.0,30.0,-100.00,WSW,243,20.0,28.0,81,0.00,,,0.18,,2013-04-19 10:02:00,
2013-04-19 05:13:00,35.0,30.0,-100.00,WSW,243,20.0,28.0,81,0.00,,,0.18,,2013-04-19 10:13:00,
2013-04-19 05:23:00,35.0,30.0,-100.00,WSW,243,20.0,28.0,81,0.00,,,0.18,,2013-04-19 10:23:00,
2013-04-19 05:52:00,35.0,30.0,-100.00,WSW,242,19.0,31.0,81,0.00,,,0.17,,2013-04-19 10:52:00,
2013-04-19 06:03:00,35.0,30.0,-100.00,WSW,242,19.0,31.0,81,0.00,,,0.17,,2013-04-19 11:03:00,
2013-04-19 06:11:00,35.0,30.0,-100.00,WSW,242,19.0,31.0,81,0.00,,,0.17,,2013-04-19 11:11:00,
2013-04-19 06:22:00,35.0,30.0,-100.00,WSW,242,19.0,31.0,81,0.00,,,0.17,,2013-04-19 11:22:00,
2013-04-19 06:52:00,35.0,30.0,-100.00,WSW,243,20.0,30.0,81,0.00,,,0.17,,2013-04-19 11:52:00,
2013-04-19 07:03:00,35.0,30.0,-100.00,WSW,243,20.0,30.0,81,0.00,,,0.17,,2013-04-19 12:03:00,
2013-04-19 07:12:00,35.0,30.0,-100.00,WSW,243,20.0,30.0,81,0.00,,,0.17,,2013-04-19 12:12:00,
2013-04-19 07:22:00,35.0,30.0,-100.00,WSW,243,20.0,30.0,81,0.00,,,0.17,,2013-04-19 12:22:00,
2013-04-19 07:53:00,35.0,29.0,-100.00,WSW,251,21.0,31.0,79,0.00,,,0.11,,2013-04-19 12:53:00,
2013-04-19 08:01:00,35.0,29.0,-100.00,WSW,251,21.0,31.0,79,0.00,,,0.11,,2013-04-19 13:01:00,
2013-04-19 08:11:00,35.0,29.0,-100.00,WSW,251,21.0,31.0,79,0.00,,,0.11,,2013-04-19 13:11:00,
2013-04-19 08:21:00,35.0,29.0,-100.00,WSW,251,21.0,31.0,79,0.00,,,0.11,,2013-04-19 13:21:00,
2013-04-19 08:52:00,34.0,29.0,-100.00,West,266,22.0,34.0,81,0.00,,,0.04,,2013-04-19 13:52:00,
2013-04-19 09:02:00,34.0,29.0,-100.00,West,266,22.0,34.0,81,0.00,,,0.04,,2013-04-19 14:02:00,
2013-04-19 09:11:00,34.0,29.0,-100.00,West,266,22.0,34.0,81,0.00,,,0.04,,2013-04-19 14:11:00,
2013-04-19 09:22:00,34.0,29.0,-100.00,West,266,22.0,34.0,81,0.00,,,0.04,,2013-04-19 14:22:00,
2013-04-19 09:52:00,36.0,29.0,-100.00,West,275,27.0,40.0,76,0.00,,,0.00,,2013-04-19 14:52:00,
2013-04-19 10:02:00,36.0,29.0,-100.00,West,275,27.0,40.0,76,0.00,,,0.00,,2013-04-19 15:02:00,
2013-04-19 10:12:00,36.0,29.0,-100.00,West,275,27.0,40.0,76,0.00,,,0.00,,2013-04-19 15:12:00,
2013-04-19 10:21:00,36.0,29.0,-100.00,West,275,27.0,40.0,76,0.00,,,0.00,,2013-04-19 15:21:00,
2013-04-19 10:52:00,35.0,27.0,-100.00,WNW,282,26.0,37.0,73,0.00,,,0.00,,2013-04-19 15:52:00,
2013-04-19 11:03:00,35.0,27.0,-100.00,WNW,282,26.0,37.0,73,0.00,,,0.00,,2013-04-19 16:03:00,
2013-04-19 11:13:00,35.0,27.0,-100.00,WNW,282,26.0,37.0,73,0.00,,,0.00,,2013-04-19 16:13:00,
2013-04-19 11:23:00,35.0,27.0,-100.00,WNW,282,26.0,37.0,73,0.00,,,0.00,,2013-04-19 16:23:00,
2013-04-19 11:53:00,36.0,26.0,-100.00,WNW,284,24.0,34.0,68,0.00,,,0.00,,2013-04-19 16:53:00,
2013-04-19 12:02:00,36.0,26.0,-100.00,WNW,284,24.0,34.0,68,0.00,,,0.00,,2013-04-19 17:02:00,
2013-04-19 12:12:00,36.0,26.0,-100.00,WNW,284,24.0,34.0,68,0.00,,,0.00,,2013-04-19 17:12:00,
2013-04-19 12:21:00,36.0,26.0,-100.00,WNW,284,24.0,34.0,68,0.00,,,0.00,,2013-04-19 17:21:00,
2013-04-19 12:52:00,37.0,26.0,-100.00,West,281,27.0,37.0,63,0.00,,,0.00,,2013-04-19 17:52:00,
2013-04-19 13:02:00,37.0,26.0,-100.00,West,281,27.0,37.0,63,0.00,,,0.00,,2013-04-19 18:02:00,
2013-04-19 13:13:00,37.0,26.0,-100.00,West,281,27.0,37.0,63,0.00,,,0.00,,2013-04-19 18:13:00,
2013-04-19 13:23:00,37.0,26.0,-100.00,West,281,27.0,37.0,63,0.00,,,0.00,,2013-04-19 18:23:00,
2013-04-19 13:52:00,36.0,28.0,-100.00,WNW,284,18.0,40.0,71,0.00,,,0.00,,2013-04-19 18:52:00,
2013-04-19 14:02:00,36.0,28.0,-100.00,WNW,284,18.0,40.0,71,0.00,,,0.00,,2013-04-19 19:02:00,
2013-04-19 14:11:00,36.0,28.0,-100.00,WNW,284,18.0,40.0,71,0.00,,,0.00,,2013-04-19 19:11:00,
2013-04-19 14:21:00,36.0,28.0,-100.00,WNW,284,18.0,40.0,71,0.00,,,0.00,,2013-04-19 19:21:00,
2013-04-19 14:52:00,37.0,27.0,-100.00,WNW,290,21.0,39.0,68,0.00,,,0.00,,2013-04-19 19:52:00,
2013-04-19 15:02:00,37.0,27.0,-100.00,WNW,290,21.0,39.0,68,0.00,,,0.00,,2013-04-19 20:02:00,
2013-04-19 15:11:00,37.0,27.0,-100.00,WNW,290,21.0,39.0,68,0.00,,,0.00,,2013-04-19 20:11:00,
2013-04-19 15:22:00,37.0,27.0,-100.00,WNW,290,21.0,39.0,68,0.00,,,0.00,,2013-04-19 20:22:00,
2013-04-19 15:52:00,36.0,26.0,-100.00,WNW,294,26.0,40.0,66,0.00,,,0.00,,2013-04-19 20:52:00,
2013-04-19 16:01:00,36.0,26.0,-100.00,WNW,294,26.0,40.0,66,0.00,,,0.00,,2013-04-19 21:01:00,
2013-04-19 16:11:00,36.0,26.0,-100.00,WNW,294,26.0,40.0,66,0.00,,,0.00,,2013-04-19 21:11:00,
2013-04-19 16:21:00,36.0,26.0,-100.00,WNW,294,26.0,40.0,66,0.00,,,0.00,,2013-04-19 21:21:00,
2013-04-19 16:53:00,36.0,25.0,-100.00,WNW,299,20.0,35.0,65,0.00,,,0.00,,2013-04-19 21:53:00,
2013-04-19 17:02:00,36.0,25.0,-100.00,WNW,299,20.0,35.0,65,0.00,,,0.00,,2013-04-19 22:02:00,
2013-04-19 17:12:00,36.0,25.0,-100.00,WNW,299,20.0,35.0,65,0.00,,,0.00,,2013-04-19 22:12:00,
2013-04-19 17:22:00,36.0,25.0,-100.00,WNW,299,20.0,35.0,65,0.00,,,0.00,,2013-04-19 22:22:00,
2013-04-19 17:52:00,35.0,23.0,-100.00,WNW,301,20.0,37.0,61,0.00,,,0.00,,2013-04-19 22:52:00,
2013-04-19 18:03:00,35.0,23.0,-100.00,WNW,301,20.0,37.0,61,0.00,,,0.00,,2013-04-19 23:03:00,
2013-04-19 18:11:00,35.0,23.0,-100.00,WNW,301,20.0,37.0,61,0.00,,,0.00,,2013-04-19 23:11:00,
2013-04-19 18:22:00,35.0,23.0,-100.00,WNW,301,20.0,37.0,61,0.00,,,0.00,,2013-04-19 23:22:00,
2013-04-19 18:52:00,35.0,24.0,-100.00,WNW,298,18.0,28.0,65,0.00,,,0.00,,2013-04-19 23:52:00,
2013-04-19 19:02:00,35.0,24.0,-100.00,WNW,298,18.0,28.0,65,0.00,,,0.00,,2013-04-20 00:02:00,
2013-04-19 19:12:00,35.0,24.0,-100.00,WNW,298,18.0,28.0,65,0.00,,,0.00,,2013-04-20 00:12:00,
2013-04-19 19:21:00,35.0,24.0,-100.00,WNW,298,18.0,28.0,65,0.00,,,0.00,,2013-04-20 00:21:00,
2013-04-19 19:52:00,34.0,26.0,-100.00,NW,310,13.0,33.0,71,0.00,,,0.00,,2013-04-20 00:52:00,
2013-04-19 20:01:00,34.0,26.0,-100.00,NW,310,13.0,33.0,71,0.00,,,0.00,,2013-04-20 01:01:00,
2013-04-19 20:11:00,34.0,26.0,-100.00,NW,310,13.0,33.0,71,0.00,,,0.00,,2013-04-20 01:11:00,
2013-04-19 20:21:00,34.0,26.0,-100.00,NW,310,13.0,33.0,71,0.00,,,0.00,,2013-04-20 01:21:00,
2013-04-19 20:52:00,31.0,24.0,-100.00,NNW,330,18.0,28.0,76,0.00,,,0.00,,2013-04-20 01:52:00,
2013-04-19 21:01:00,31.0,24.0,-100.00,NNW,330,18.0,28.0,76,0.00,,,0.00,,2013-04-20 02:01:00,
2013-04-19 21:11:00,31.0,24.0,-100.00,NNW,330,18.0,28.0,76,0.00,,,0.00,,2013-04-20 02:11:00,
2013-04-19 21:21:00,31.0,24.0,-100.00,NNW,330,18.0,28.0,76,0.00,,,0.00,,2013-04-20 02:21:00,
2013-04-19 21:52:00,32.0,22.0,-100.00,NW,316,16.0,30.0,65,0.00,,,0.00,,2013-04-20 02:52:00,
2013-04-19 22:01:00,32.0,22.0,-100.00,NW,316,16.0,30.0,65,0.00,,,0.00,,2013-04-20 03:01:00,
2013-04-19 22:11:00,32.0,22.0,-100.00,NW,316,16.0,30.0,65,0.00,,,0.00,,2013-04-20 03:11:00,
2013-04-19 22:21:00,32.0,22.0,-100.00,NW,316,16.0,30.0,65,0.00,,,0.00,,2013-04-20 03:21:00,
2013-04-19 22:53:00,31.0,22.0,-100.00,NW,320,13.0,25.0,68,0.00,,,0.00,,2013-04-20 03:53:00,
2013-04-19 23:03:00,31.0,22.0,-100.00,NW,320,13.0,25.0,68,0.00,,,0.00,,2013-04-20 04:03:00,
2013-04-19 23:12:00,31.0,22.0,-100.00,NW,320,13.0,25.0,68,0.00,,,0.00,,2013-04-20 04:12:00,
2013-04-19 23:23:00,31.0,22.0,-100.00,NW,320,13.0,25.0,68,0.00,,,0.00,,2013-04-20 04:23:00,
2013-04-19 23:53:00,30.0,19.0,-100.00,NW,323,14.0,25.0,63,0.00,,,0.00,,2013-04-20 04:53:00,